Terminal Aerodrome Forecast
Issued by NWS

Home | Current Version | Previous Version | Text Only | Print | Product List | Glossary On
Versions: 1 2 3 4 5 6 7 8 9 10 11 12 13 14 15 16 17 18 19 20 21 22 23 24 25 26 27 28 29 30 31 32 33 34 35 36 37 38 39 40 41 42 43 44 45 46 47 48 49 50
000
FTUS43 KMKX 260329 AAC
TAFENW
TAF AMD
KENW 260329Z 2603/2624 26011G18KT P6SM SCT050 BKN100
      TEMPO 2604/2607 -SHRA
     FM260900 27010G18KT P6SM SCT050
     FM261600 26018G26KT P6SM FEW050=

USA.gov is the U.S. government's official web portal to all federal, state and local government web resources and services.